Terminal Aerodrome Forecast
Issued by NWS

Home | Current Version | Previous Version | Text Only | Print | Product List | Glossary On
Versions: 1 2 3 4 5 6 7 8 9 10 11 12 13
000
FTUS46 KLOX 250206 AAA
TAFSBA
TAF AMD
KSBA 250206Z 2502/2524 29018G26KT P6SM BKN200 WS020/34045KT
     FM250300 33015G25KT P6SM BKN200 WS010/35035KT
     FM250700 01010KT P6SM BKN200 WS010/36035KT
     FM251800 27015G25KT P6SM BKN200=

USA.gov is the U.S. government's official web portal to all federal, state and local government web resources and services.